sensor_id;sensor_type;location;lat;lon;timestamp;P1;durP1;ratioP1;P2;durP2;ratioP2
8285;SDS011;4181;43.416;24.598;2024-03-25T00:01:31;3.03;;;2.07;;
8285;SDS011;4181;43.416;24.598;2024-03-25T00:03:56;2.13;;;1.17;;
8285;SDS011;4181;43.416;24.598;2024-03-25T00:06:22;1.70;;;1.60;;
8285;SDS011;4181;43.416;24.598;2024-03-25T00:08:47;2.17;;;1.50;;
8285;SDS011;4181;43.416;24.598;2024-03-25T00:11:13;1.50;;;1.37;;
8285;SDS011;4181;43.416;24.598;2024-03-25T00:13:38;2.53;;;1.50;;
8285;SDS011;4181;43.416;24.598;2024-03-25T00:16:04;1.40;;;1.30;;
8285;SDS011;4181;43.416;24.598;2024-03-25T00:18:30;1.43;;;1.27;;
8285;SDS011;4181;43.416;24.598;2024-03-25T00:20:56;2.47;;;1.73;;
8285;SDS011;4181;43.416;24.598;2024-03-25T00:23:22;2.17;;;1.93;;
8285;SDS011;4181;43.416;24.598;2024-03-25T00:25:47;1.83;;;1.47;;
8285;SDS011;4181;43.416;24.598;2024-03-25T00:28:13;5.07;;;1.70;;
8285;SDS011;4181;43.416;24.598;2024-03-25T00:30:39;3.60;;;1.60;;
8285;SDS011;4181;43.416;24.598;2024-03-25T00:33:04;2.60;;;2.07;;
8285;SDS011;4181;43.416;24.598;2024-03-25T00:35:31;2.07;;;1.67;;
8285;SDS011;4181;43.416;24.598;2024-03-25T00:37:59;2.57;;;1.93;;
8285;SDS011;4181;43.416;24.598;2024-03-25T00:40:25;1.93;;;1.73;;
8285;SDS011;4181;43.416;24.598;2024-03-25T00:42:51;3.17;;;2.33;;
8285;SDS011;4181;43.416;24.598;2024-03-25T00:45:17;3.13;;;1.97;;
8285;SDS011;4181;43.416;24.598;2024-03-25T00:47:42;2.83;;;1.87;;
8285;SDS011;4181;43.416;24.598;2024-03-25T00:50:08;3.93;;;2.40;;
8285;SDS011;4181;43.416;24.598;2024-03-25T00:52:34;2.00;;;1.63;;
8285;SDS011;4181;43.416;24.598;2024-03-25T00:55:00;2.70;;;2.07;;
8285;SDS011;4181;43.416;24.598;2024-03-25T00:57:26;2.63;;;1.80;;
8285;SDS011;4181;43.416;24.598;2024-03-25T00:59:51;1.57;;;1.40;;
8285;SDS011;4181;43.416;24.598;2024-03-25T01:02:16;4.60;;;1.90;;
8285;SDS011;4181;43.416;24.598;2024-03-25T01:04:45;1.50;;;1.40;;
8285;SDS011;4181;43.416;24.598;2024-03-25T01:07:10;3.70;;;2.00;;
8285;SDS011;4181;43.416;24.598;2024-03-25T01:09:39;3.43;;;2.13;;
8285;SDS011;4181;43.416;24.598;2024-03-25T01:12:05;2.27;;;1.80;;
8285;SDS011;4181;43.416;24.598;2024-03-25T01:14:30;2.30;;;1.90;;
8285;SDS011;4181;43.416;24.598;2024-03-25T01:16:56;4.90;;;2.10;;
8285;SDS011;4181;43.416;24.598;2024-03-25T01:19:21;5.63;;;2.40;;
8285;SDS011;4181;43.416;24.598;2024-03-25T01:21:47;5.20;;;2.10;;
8285;SDS011;4181;43.416;24.598;2024-03-25T01:24:13;2.60;;;2.10;;
8285;SDS011;4181;43.416;24.598;2024-03-25T01:26:39;4.20;;;2.67;;
8285;SDS011;4181;43.416;24.598;2024-03-25T01:29:05;2.30;;;2.10;;
8285;SDS011;4181;43.416;24.598;2024-03-25T01:31:32;4.40;;;1.93;;
8285;SDS011;4181;43.416;24.598;2024-03-25T01:33:59;4.23;;;2.00;;
8285;SDS011;4181;43.416;24.598;2024-03-25T01:36:25;4.30;;;2.00;;
8285;SDS011;4181;43.416;24.598;2024-03-25T01:38:51;1.83;;;1.73;;
8285;SDS011;4181;43.416;24.598;2024-03-25T01:41:19;4.77;;;2.30;;
8285;SDS011;4181;43.416;24.598;2024-03-25T01:43:47;3.27;;;2.33;;
8285;SDS011;4181;43.416;24.598;2024-03-25T01:46:14;2.77;;;1.93;;
8285;SDS011;4181;43.416;24.598;2024-03-25T01:48:41;3.67;;;2.23;;
8285;SDS011;4181;43.416;24.598;2024-03-25T01:51:07;4.67;;;1.90;;
8285;SDS011;4181;43.416;24.598;2024-03-25T01:53:33;3.17;;;1.97;;
8285;SDS011;4181;43.416;24.598;2024-03-25T01:55:58;3.10;;;1.97;;
8285;SDS011;4181;43.416;24.598;2024-03-25T01:58:24;5.83;;;2.60;;
8285;SDS011;4181;43.416;24.598;2024-03-25T02:00:52;2.63;;;2.07;;
8285;SDS011;4181;43.416;24.598;2024-03-25T02:03:19;3.23;;;2.20;;
8285;SDS011;4181;43.416;24.598;2024-03-25T02:05:45;3.50;;;2.90;;
8285;SDS011;4181;43.416;24.598;2024-03-25T02:08:10;3.13;;;2.17;;
8285;SDS011;4181;43.416;24.598;2024-03-25T02:10:37;3.00;;;2.63;;
8285;SDS011;4181;43.416;24.598;2024-03-25T02:13:03;3.67;;;2.40;;
8285;SDS011;4181;43.416;24.598;2024-03-25T02:15:28;4.27;;;2.47;;
8285;SDS011;4181;43.416;24.598;2024-03-25T02:17:54;4.13;;;2.53;;
8285;SDS011;4181;43.416;24.598;2024-03-25T02:20:20;4.80;;;2.60;;
8285;SDS011;4181;43.416;24.598;2024-03-25T02:22:45;4.20;;;2.83;;
8285;SDS011;4181;43.416;24.598;2024-03-25T02:25:11;5.37;;;2.70;;
8285;SDS011;4181;43.416;24.598;2024-03-25T02:27:37;6.23;;;2.70;;
8285;SDS011;4181;43.416;24.598;2024-03-25T02:30:06;4.10;;;2.50;;
8285;SDS011;4181;43.416;24.598;2024-03-25T02:32:33;3.40;;;2.00;;
8285;SDS011;4181;43.416;24.598;2024-03-25T02:35:00;5.07;;;2.90;;
8285;SDS011;4181;43.416;24.598;2024-03-25T02:37:27;4.50;;;2.73;;
8285;SDS011;4181;43.416;24.598;2024-03-25T02:39:54;3.90;;;2.80;;
8285;SDS011;4181;43.416;24.598;2024-03-25T02:42:22;4.80;;;2.50;;
8285;SDS011;4181;43.416;24.598;2024-03-25T02:44:49;4.63;;;3.10;;
8285;SDS011;4181;43.416;24.598;2024-03-25T02:47:14;4.40;;;2.77;;
8285;SDS011;4181;43.416;24.598;2024-03-25T02:49:40;3.70;;;2.63;;
8285;SDS011;4181;43.416;24.598;2024-03-25T02:52:08;4.83;;;2.73;;
8285;SDS011;4181;43.416;24.598;2024-03-25T02:54:33;3.43;;;2.73;;
8285;SDS011;4181;43.416;24.598;2024-03-25T02:56:59;3.07;;;2.43;;
8285;SDS011;4181;43.416;24.598;2024-03-25T02:59:24;3.63;;;2.37;;
8285;SDS011;4181;43.416;24.598;2024-03-25T03:01:50;2.87;;;2.60;;
8285;SDS011;4181;43.416;24.598;2024-03-25T03:04:15;3.93;;;2.33;;
8285;SDS011;4181;43.416;24.598;2024-03-25T03:06:40;6.10;;;2.97;;
8285;SDS011;4181;43.416;24.598;2024-03-25T03:09:06;2.63;;;2.20;;
8285;SDS011;4181;43.416;24.598;2024-03-25T03:11:32;5.13;;;2.90;;
8285;SDS011;4181;43.416;24.598;2024-03-25T03:13:57;3.87;;;1.93;;
8285;SDS011;4181;43.416;24.598;2024-03-25T03:16:22;3.53;;;2.80;;
8285;SDS011;4181;43.416;24.598;2024-03-25T03:18:48;2.47;;;2.00;;
8285;SDS011;4181;43.416;24.598;2024-03-25T03:21:13;3.27;;;2.33;;
8285;SDS011;4181;43.416;24.598;2024-03-25T03:23:39;3.57;;;2.20;;
8285;SDS011;4181;43.416;24.598;2024-03-25T03:26:04;3.57;;;2.60;;
8285;SDS011;4181;43.416;24.598;2024-03-25T03:28:30;4.17;;;2.57;;
8285;SDS011;4181;43.416;24.598;2024-03-25T03:30:55;2.57;;;2.17;;
8285;SDS011;4181;43.416;24.598;2024-03-25T03:33:21;3.10;;;2.33;;
8285;SDS011;4181;43.416;24.598;2024-03-25T03:35:46;3.47;;;2.03;;
8285;SDS011;4181;43.416;24.598;2024-03-25T03:38:12;3.43;;;2.07;;
8285;SDS011;4181;43.416;24.598;2024-03-25T03:40:38;5.20;;;2.83;;
8285;SDS011;4181;43.416;24.598;2024-03-25T03:43:03;6.27;;;3.57;;
8285;SDS011;4181;43.416;24.598;2024-03-25T03:45:32;3.73;;;2.30;;
8285;SDS011;4181;43.416;24.598;2024-03-25T03:47:59;6.77;;;3.17;;
8285;SDS011;4181;43.416;24.598;2024-03-25T03:50:25;5.80;;;2.43;;
8285;SDS011;4181;43.416;24.598;2024-03-25T03:52:50;3.17;;;2.27;;
8285;SDS011;4181;43.416;24.598;2024-03-25T03:55:16;2.73;;;2.17;;
8285;SDS011;4181;43.416;24.598;2024-03-25T03:57:41;5.70;;;3.40;;
8285;SDS011;4181;43.416;24.598;2024-03-25T04:00:08;6.37;;;3.57;;
8285;SDS011;4181;43.416;24.598;2024-03-25T04:02:36;8.67;;;4.30;;
8285;SDS011;4181;43.416;24.598;2024-03-25T04:05:03;5.00;;;3.20;;
8285;SDS011;4181;43.416;24.598;2024-03-25T04:07:29;5.03;;;3.13;;
8285;SDS011;4181;43.416;24.598;2024-03-25T04:09:55;3.93;;;2.53;;
8285;SDS011;4181;43.416;24.598;2024-03-25T04:12:22;3.90;;;2.80;;
8285;SDS011;4181;43.416;24.598;2024-03-25T04:14:48;5.43;;;2.70;;
8285;SDS011;4181;43.416;24.598;2024-03-25T04:17:19;3.67;;;2.97;;
8285;SDS011;4181;43.416;24.598;2024-03-25T04:19:45;3.13;;;2.83;;
8285;SDS011;4181;43.416;24.598;2024-03-25T04:22:10;5.77;;;3.27;;
8285;SDS011;4181;43.416;24.598;2024-03-25T04:24:36;4.67;;;3.03;;
8285;SDS011;4181;43.416;24.598;2024-03-25T04:27:01;5.37;;;3.60;;
8285;SDS011;4181;43.416;24.598;2024-03-25T04:29:27;7.07;;;4.43;;
8285;SDS011;4181;43.416;24.598;2024-03-25T04:31:54;8.80;;;5.50;;
8285;SDS011;4181;43.416;24.598;2024-03-25T04:34:19;7.27;;;4.63;;
8285;SDS011;4181;43.416;24.598;2024-03-25T04:36:46;9.00;;;4.63;;
8285;SDS011;4181;43.416;24.598;2024-03-25T04:39:11;6.73;;;4.00;;
8285;SDS011;4181;43.416;24.598;2024-03-25T04:41:37;10.67;;;6.37;;
8285;SDS011;4181;43.416;24.598;2024-03-25T04:44:02;10.33;;;5.33;;
8285;SDS011;4181;43.416;24.598;2024-03-25T04:46:27;10.40;;;5.27;;
8285;SDS011;4181;43.416;24.598;2024-03-25T04:48:53;8.30;;;4.97;;
8285;SDS011;4181;43.416;24.598;2024-03-25T04:51:18;6.33;;;4.03;;
8285;SDS011;4181;43.416;24.598;2024-03-25T04:53:44;5.30;;;4.13;;
8285;SDS011;4181;43.416;24.598;2024-03-25T04:56:09;9.07;;;5.40;;
8285;SDS011;4181;43.416;24.598;2024-03-25T04:58:35;10.70;;;5.77;;
8285;SDS011;4181;43.416;24.598;2024-03-25T05:01:01;7.70;;;4.70;;
8285;SDS011;4181;43.416;24.598;2024-03-25T05:03:26;7.87;;;4.90;;
8285;SDS011;4181;43.416;24.598;2024-03-25T05:05:52;7.67;;;5.00;;
8285;SDS011;4181;43.416;24.598;2024-03-25T05:08:17;8.97;;;4.17;;
8285;SDS011;4181;43.416;24.598;2024-03-25T05:10:42;8.17;;;4.70;;
8285;SDS011;4181;43.416;24.598;2024-03-25T05:13:08;7.90;;;4.23;;
8285;SDS011;4181;43.416;24.598;2024-03-25T05:15:33;8.13;;;5.30;;
8285;SDS011;4181;43.416;24.598;2024-03-25T05:17:59;8.43;;;4.13;;
8285;SDS011;4181;43.416;24.598;2024-03-25T05:20:24;11.57;;;6.17;;
8285;SDS011;4181;43.416;24.598;2024-03-25T05:22:51;11.23;;;6.07;;
8285;SDS011;4181;43.416;24.598;2024-03-25T05:25:17;9.50;;;5.53;;
8285;SDS011;4181;43.416;24.598;2024-03-25T05:27:42;7.70;;;4.77;;
8285;SDS011;4181;43.416;24.598;2024-03-25T05:30:09;9.13;;;4.90;;
8285;SDS011;4181;43.416;24.598;2024-03-25T05:32:35;9.80;;;5.40;;
8285;SDS011;4181;43.416;24.598;2024-03-25T05:35:00;7.00;;;4.00;;
8285;SDS011;4181;43.416;24.598;2024-03-25T05:37:26;8.40;;;4.77;;
8285;SDS011;4181;43.416;24.598;2024-03-25T05:39:52;10.03;;;5.13;;
8285;SDS011;4181;43.416;24.598;2024-03-25T05:42:17;9.73;;;5.87;;
8285;SDS011;4181;43.416;24.598;2024-03-25T05:44:44;7.67;;;5.60;;
8285;SDS011;4181;43.416;24.598;2024-03-25T05:47:11;11.07;;;7.17;;
8285;SDS011;4181;43.416;24.598;2024-03-25T05:49:37;8.43;;;5.73;;
8285;SDS011;4181;43.416;24.598;2024-03-25T05:52:02;8.27;;;5.20;;
8285;SDS011;4181;43.416;24.598;2024-03-25T05:54:28;9.77;;;5.87;;
8285;SDS011;4181;43.416;24.598;2024-03-25T05:56:53;8.70;;;6.07;;
8285;SDS011;4181;43.416;24.598;2024-03-25T05:59:18;10.43;;;6.03;;
8285;SDS011;4181;43.416;24.598;2024-03-25T06:01:44;8.10;;;4.70;;
8285;SDS011;4181;43.416;24.598;2024-03-25T06:04:09;9.30;;;5.53;;
8285;SDS011;4181;43.416;24.598;2024-03-25T06:06:35;10.53;;;5.93;;
8285;SDS011;4181;43.416;24.598;2024-03-25T06:09:01;9.43;;;5.33;;
8285;SDS011;4181;43.416;24.598;2024-03-25T06:11:26;9.83;;;5.57;;
8285;SDS011;4181;43.416;24.598;2024-03-25T06:13:52;10.40;;;4.53;;
8285;SDS011;4181;43.416;24.598;2024-03-25T06:16:17;8.50;;;4.93;;
8285;SDS011;4181;43.416;24.598;2024-03-25T06:18:46;8.23;;;4.97;;
8285;SDS011;4181;43.416;24.598;2024-03-25T06:21:16;12.63;;;6.07;;
8285;SDS011;4181;43.416;24.598;2024-03-25T06:23:41;11.23;;;7.13;;
8285;SDS011;4181;43.416;24.598;2024-03-25T06:26:06;10.07;;;6.27;;
8285;SDS011;4181;43.416;24.598;2024-03-25T06:28:32;10.30;;;5.60;;
8285;SDS011;4181;43.416;24.598;2024-03-25T06:30:57;11.20;;;6.33;;
8285;SDS011;4181;43.416;24.598;2024-03-25T06:33:41;8.90;;;5.67;;
8285;SDS011;4181;43.416;24.598;2024-03-25T06:36:25;16.07;;;7.23;;
8285;SDS011;4181;43.416;24.598;2024-03-25T06:38:50;12.77;;;7.17;;
8285;SDS011;4181;43.416;24.598;2024-03-25T06:41:16;9.43;;;5.83;;
8285;SDS011;4181;43.416;24.598;2024-03-25T06:43:41;13.17;;;6.63;;
8285;SDS011;4181;43.416;24.598;2024-03-25T06:46:07;10.03;;;5.50;;
8285;SDS011;4181;43.416;24.598;2024-03-25T06:48:33;10.17;;;5.60;;
8285;SDS011;4181;43.416;24.598;2024-03-25T06:50:59;7.37;;;4.97;;
8285;SDS011;4181;43.416;24.598;2024-03-25T06:53:25;9.73;;;5.53;;
8285;SDS011;4181;43.416;24.598;2024-03-25T06:55:57;6.00;;;4.30;;
8285;SDS011;4181;43.416;24.598;2024-03-25T06:58:24;7.73;;;5.30;;
8285;SDS011;4181;43.416;24.598;2024-03-25T07:00:51;9.30;;;5.13;;
8285;SDS011;4181;43.416;24.598;2024-03-25T07:03:17;7.47;;;4.90;;
8285;SDS011;4181;43.416;24.598;2024-03-25T07:05:46;8.27;;;4.87;;
8285;SDS011;4181;43.416;24.598;2024-03-25T07:08:13;10.80;;;5.20;;
8285;SDS011;4181;43.416;24.598;2024-03-25T07:10:39;8.33;;;4.93;;
8285;SDS011;4181;43.416;24.598;2024-03-25T07:13:07;5.77;;;3.80;;
8285;SDS011;4181;43.416;24.598;2024-03-25T07:15:43;10.93;;;5.60;;
8285;SDS011;4181;43.416;24.598;2024-03-25T07:18:08;13.10;;;7.03;;
8285;SDS011;4181;43.416;24.598;2024-03-25T09:52:40;7.65;;;4.75;;
8285;SDS011;4181;43.416;24.598;2024-03-25T09:55:06;9.13;;;3.90;;
8285;SDS011;4181;43.416;24.598;2024-03-25T09:57:33;6.53;;;4.37;;
8285;SDS011;4181;43.416;24.598;2024-03-25T09:59:59;7.77;;;4.10;;
8285;SDS011;4181;43.416;24.598;2024-03-25T10:02:25;5.43;;;4.00;;
8285;SDS011;4181;43.416;24.598;2024-03-25T10:04:53;6.10;;;3.60;;
8285;SDS011;4181;43.416;24.598;2024-03-25T10:07:22;7.33;;;4.40;;
8285;SDS011;4181;43.416;24.598;2024-03-25T10:09:49;7.03;;;4.93;;
8285;SDS011;4181;43.416;24.598;2024-03-25T10:12:15;8.53;;;5.00;;
8285;SDS011;4181;43.416;24.598;2024-03-25T10:14:40;5.63;;;3.77;;
8285;SDS011;4181;43.416;24.598;2024-03-25T10:17:06;6.40;;;3.80;;
8285;SDS011;4181;43.416;24.598;2024-03-25T10:19:35;6.50;;;4.50;;
8285;SDS011;4181;43.416;24.598;2024-03-25T10:22:01;5.27;;;3.50;;
8285;SDS011;4181;43.416;24.598;2024-03-25T10:24:36;15.50;;;5.10;;
8285;SDS011;4181;43.416;24.598;2024-03-25T10:27:06;6.63;;;4.23;;
8285;SDS011;4181;43.416;24.598;2024-03-25T10:29:36;7.93;;;4.47;;
8285;SDS011;4181;43.416;24.598;2024-03-25T10:32:02;4.30;;;2.83;;
8285;SDS011;4181;43.416;24.598;2024-03-25T10:34:29;5.27;;;3.33;;
8285;SDS011;4181;43.416;24.598;2024-03-25T10:36:56;3.07;;;2.50;;
8285;SDS011;4181;43.416;24.598;2024-03-25T10:39:26;3.03;;;2.47;;
8285;SDS011;4181;43.416;24.598;2024-03-25T10:41:56;4.00;;;2.47;;
8285;SDS011;4181;43.416;24.598;2024-03-25T10:44:23;4.23;;;2.70;;
8285;SDS011;4181;43.416;24.598;2024-03-25T10:46:55;4.33;;;2.80;;
8285;SDS011;4181;43.416;24.598;2024-03-25T10:49:32;3.23;;;2.63;;
8285;SDS011;4181;43.416;24.598;2024-03-25T10:52:00;4.47;;;2.93;;
8285;SDS011;4181;43.416;24.598;2024-03-25T10:54:29;5.07;;;3.60;;
8285;SDS011;4181;43.416;24.598;2024-03-25T10:56:57;4.77;;;3.10;;
8285;SDS011;4181;43.416;24.598;2024-03-25T10:59:23;5.27;;;3.43;;
8285;SDS011;4181;43.416;24.598;2024-03-25T11:01:51;3.13;;;2.30;;
8285;SDS011;4181;43.416;24.598;2024-03-25T11:04:16;4.33;;;2.50;;
8285;SDS011;4181;43.416;24.598;2024-03-25T11:06:43;4.40;;;2.73;;
8285;SDS011;4181;43.416;24.598;2024-03-25T11:09:09;2.70;;;2.40;;
8285;SDS011;4181;43.416;24.598;2024-03-25T11:11:34;3.73;;;2.63;;
8285;SDS011;4181;43.416;24.598;2024-03-25T11:14:03;3.27;;;2.50;;
8285;SDS011;4181;43.416;24.598;2024-03-25T11:16:29;4.23;;;2.50;;
8285;SDS011;4181;43.416;24.598;2024-03-25T11:18:55;2.27;;;1.63;;
8285;SDS011;4181;43.416;24.598;2024-03-25T11:21:27;2.07;;;1.70;;
8285;SDS011;4181;43.416;24.598;2024-03-25T11:23:52;1.63;;;1.40;;
8285;SDS011;4181;43.416;24.598;2024-03-25T11:26:18;1.70;;;1.60;;
8285;SDS011;4181;43.416;24.598;2024-03-25T11:28:45;1.63;;;1.47;;
8285;SDS011;4181;43.416;24.598;2024-03-25T11:31:10;2.20;;;1.70;;
8285;SDS011;4181;43.416;24.598;2024-03-25T11:33:37;1.60;;;1.40;;
8285;SDS011;4181;43.416;24.598;2024-03-25T11:36:04;2.80;;;2.20;;
8285;SDS011;4181;43.416;24.598;2024-03-25T11:38:29;2.07;;;1.83;;
8285;SDS011;4181;43.416;24.598;2024-03-25T11:40:55;1.90;;;1.70;;
8285;SDS011;4181;43.416;24.598;2024-03-25T11:43:21;2.67;;;1.73;;
8285;SDS011;4181;43.416;24.598;2024-03-25T11:45:47;2.57;;;2.10;;
8285;SDS011;4181;43.416;24.598;2024-03-25T11:48:14;3.23;;;1.50;;
8285;SDS011;4181;43.416;24.598;2024-03-25T11:50:40;1.90;;;1.60;;
8285;SDS011;4181;43.416;24.598;2024-03-25T11:53:05;3.00;;;1.90;;
8285;SDS011;4181;43.416;24.598;2024-03-25T11:55:31;4.43;;;1.60;;
8285;SDS011;4181;43.416;24.598;2024-03-25T11:57:57;1.87;;;1.27;;
8285;SDS011;4181;43.416;24.598;2024-03-25T12:00:23;1.80;;;1.47;;
8285;SDS011;4181;43.416;24.598;2024-03-25T12:02:49;1.50;;;1.40;;
8285;SDS011;4181;43.416;24.598;2024-03-25T12:05:16;1.97;;;1.50;;
8285;SDS011;4181;43.416;24.598;2024-03-25T12:07:41;4.47;;;1.40;;
8285;SDS011;4181;43.416;24.598;2024-03-25T12:10:07;3.43;;;2.00;;
8285;SDS011;4181;43.416;24.598;2024-03-25T12:12:51;5.37;;;2.00;;
8285;SDS011;4181;43.416;24.598;2024-03-25T12:15:17;4.53;;;1.90;;
8285;SDS011;4181;43.416;24.598;2024-03-25T12:17:42;1.90;;;1.63;;
8285;SDS011;4181;43.416;24.598;2024-03-25T12:20:08;3.00;;;1.70;;
8285;SDS011;4181;43.416;24.598;2024-03-25T12:22:36;3.17;;;1.60;;
8285;SDS011;4181;43.416;24.598;2024-03-25T12:25:02;1.57;;;1.47;;
8285;SDS011;4181;43.416;24.598;2024-03-25T12:27:29;2.37;;;1.73;;
8285;SDS011;4181;43.416;24.598;2024-03-25T12:29:58;5.03;;;1.57;;
8285;SDS011;4181;43.416;24.598;2024-03-25T12:32:41;6.97;;;1.30;;
8285;SDS011;4181;43.416;24.598;2024-03-25T12:35:14;1.30;;;1.20;;
8285;SDS011;4181;43.416;24.598;2024-03-25T12:37:44;1.87;;;1.50;;
8285;SDS011;4181;43.416;24.598;2024-03-25T12:40:25;3.20;;;1.57;;
8285;SDS011;4181;43.416;24.598;2024-03-25T12:42:51;2.27;;;1.70;;
8285;SDS011;4181;43.416;24.598;2024-03-25T12:45:18;1.53;;;1.43;;
8285;SDS011;4181;43.416;24.598;2024-03-25T12:47:44;2.43;;;2.00;;
8285;SDS011;4181;43.416;24.598;2024-03-25T12:50:10;2.77;;;1.37;;
8285;SDS011;4181;43.416;24.598;2024-03-25T12:52:35;2.47;;;1.77;;
8285;SDS011;4181;43.416;24.598;2024-03-25T12:55:01;1.70;;;1.30;;
8285;SDS011;4181;43.416;24.598;2024-03-25T12:57:27;1.53;;;1.10;;
8285;SDS011;4181;43.416;24.598;2024-03-25T12:59:52;2.27;;;1.47;;
8285;SDS011;4181;43.416;24.598;2024-03-25T13:02:18;1.53;;;1.43;;
8285;SDS011;4181;43.416;24.598;2024-03-25T13:04:46;1.30;;;1.00;;
8285;SDS011;4181;43.416;24.598;2024-03-25T13:07:11;1.57;;;1.20;;
8285;SDS011;4181;43.416;24.598;2024-03-25T13:09:37;1.30;;;1.20;;
8285;SDS011;4181;43.416;24.598;2024-03-25T13:12:03;2.13;;;1.50;;
8285;SDS011;4181;43.416;24.598;2024-03-25T13:14:29;1.53;;;1.40;;
8285;SDS011;4181;43.416;24.598;2024-03-25T13:16:55;3.07;;;1.50;;
8285;SDS011;4181;43.416;24.598;2024-03-25T13:19:20;1.67;;;1.50;;
8285;SDS011;4181;43.416;24.598;2024-03-25T13:21:46;1.20;;;1.10;;
8285;SDS011;4181;43.416;24.598;2024-03-25T13:24:12;1.57;;;1.17;;
8285;SDS011;4181;43.416;24.598;2024-03-25T13:26:38;1.93;;;1.73;;
8285;SDS011;4181;43.416;24.598;2024-03-25T13:29:04;1.47;;;1.37;;
8285;SDS011;4181;43.416;24.598;2024-03-25T13:31:30;2.57;;;1.60;;
8285;SDS011;4181;43.416;24.598;2024-03-25T13:33:55;2.40;;;1.50;;
8285;SDS011;4181;43.416;24.598;2024-03-25T13:36:21;1.20;;;1.10;;
8285;SDS011;4181;43.416;24.598;2024-03-25T13:38:46;2.13;;;1.60;;
8285;SDS011;4181;43.416;24.598;2024-03-25T13:41:12;1.73;;;1.53;;
8285;SDS011;4181;43.416;24.598;2024-03-25T13:43:43;1.73;;;1.27;;
8285;SDS011;4181;43.416;24.598;2024-03-25T13:46:09;1.83;;;1.10;;
8285;SDS011;4181;43.416;24.598;2024-03-25T13:48:38;46.67;;;6.53;;
8285;SDS011;4181;43.416;24.598;2024-03-25T13:51:03;3.50;;;2.47;;
8285;SDS011;4181;43.416;24.598;2024-03-25T13:53:29;13.77;;;9.00;;
8285;SDS011;4181;43.416;24.598;2024-03-25T13:55:55;4.40;;;3.67;;
8285;SDS011;4181;43.416;24.598;2024-03-25T13:58:21;5.83;;;2.73;;
8285;SDS011;4181;43.416;24.598;2024-03-25T14:00:46;8.77;;;6.57;;
8285;SDS011;4181;43.416;24.598;2024-03-25T14:03:12;5.83;;;2.10;;
8285;SDS011;4181;43.416;24.598;2024-03-25T14:05:37;3.33;;;1.93;;
8285;SDS011;4181;43.416;24.598;2024-03-25T14:08:03;2.63;;;1.40;;
8285;SDS011;4181;43.416;24.598;2024-03-25T14:10:28;2.83;;;1.57;;
8285;SDS011;4181;43.416;24.598;2024-03-25T14:12:55;3.17;;;1.70;;
8285;SDS011;4181;43.416;24.598;2024-03-25T14:15:20;2.83;;;2.03;;
8285;SDS011;4181;43.416;24.598;2024-03-25T14:17:46;6.90;;;4.23;;
8285;SDS011;4181;43.416;24.598;2024-03-25T14:20:12;3.40;;;2.03;;
8285;SDS011;4181;43.416;24.598;2024-03-25T14:22:37;3.90;;;2.40;;
8285;SDS011;4181;43.416;24.598;2024-03-25T14:25:03;2.50;;;1.80;;
8285;SDS011;4181;43.416;24.598;2024-03-25T14:27:29;1.60;;;1.50;;
8285;SDS011;4181;43.416;24.598;2024-03-25T14:29:54;2.33;;;1.50;;
8285;SDS011;4181;43.416;24.598;2024-03-25T14:32:20;2.33;;;1.67;;
8285;SDS011;4181;43.416;24.598;2024-03-25T14:34:46;2.27;;;2.00;;
8285;SDS011;4181;43.416;24.598;2024-03-25T14:37:12;3.83;;;2.97;;
8285;SDS011;4181;43.416;24.598;2024-03-25T14:39:38;3.13;;;2.53;;
8285;SDS011;4181;43.416;24.598;2024-03-25T14:42:04;4.53;;;3.13;;
8285;SDS011;4181;43.416;24.598;2024-03-25T14:44:30;2.80;;;2.20;;
8285;SDS011;4181;43.416;24.598;2024-03-25T14:46:55;1.77;;;1.10;;
8285;SDS011;4181;43.416;24.598;2024-03-25T14:49:22;2.63;;;1.80;;
8285;SDS011;4181;43.416;24.598;2024-03-25T14:51:49;1.63;;;1.50;;
8285;SDS011;4181;43.416;24.598;2024-03-25T14:54:14;2.00;;;1.80;;
8285;SDS011;4181;43.416;24.598;2024-03-25T14:56:39;1.70;;;1.50;;
8285;SDS011;4181;43.416;24.598;2024-03-25T14:59:05;1.90;;;1.33;;
8285;SDS011;4181;43.416;24.598;2024-03-25T15:01:30;1.50;;;1.13;;
8285;SDS011;4181;43.416;24.598;2024-03-25T15:04:00;1.50;;;1.30;;
8285;SDS011;4181;43.416;24.598;2024-03-25T15:06:26;3.40;;;1.90;;
8285;SDS011;4181;43.416;24.598;2024-03-25T15:08:51;2.50;;;1.77;;
8285;SDS011;4181;43.416;24.598;2024-03-25T15:11:17;1.57;;;1.40;;
8285;SDS011;4181;43.416;24.598;2024-03-25T15:13:42;4.50;;;1.30;;
8285;SDS011;4181;43.416;24.598;2024-03-25T15:16:08;4.23;;;2.27;;
8285;SDS011;4181;43.416;24.598;2024-03-25T15:18:33;3.87;;;1.90;;
8285;SDS011;4181;43.416;24.598;2024-03-25T15:21:02;2.40;;;1.90;;
8285;SDS011;4181;43.416;24.598;2024-03-25T15:23:28;2.33;;;1.60;;
8285;SDS011;4181;43.416;24.598;2024-03-25T15:25:54;4.40;;;2.00;;
8285;SDS011;4181;43.416;24.598;2024-03-25T15:28:19;1.40;;;1.30;;
8285;SDS011;4181;43.416;24.598;2024-03-25T15:30:48;1.23;;;1.10;;
8285;SDS011;4181;43.416;24.598;2024-03-25T15:33:14;1.50;;;1.30;;
8285;SDS011;4181;43.416;24.598;2024-03-25T15:35:39;1.43;;;1.33;;
8285;SDS011;4181;43.416;24.598;2024-03-25T15:38:05;1.93;;;1.37;;
8285;SDS011;4181;43.416;24.598;2024-03-25T15:40:31;2.07;;;1.43;;
8285;SDS011;4181;43.416;24.598;2024-03-25T15:42:57;3.33;;;2.17;;
8285;SDS011;4181;43.416;24.598;2024-03-25T15:45:22;2.80;;;1.77;;
8285;SDS011;4181;43.416;24.598;2024-03-25T15:47:51;8.10;;;1.73;;
8285;SDS011;4181;43.416;24.598;2024-03-25T15:50:16;2.37;;;1.80;;
8285;SDS011;4181;43.416;24.598;2024-03-25T15:52:42;2.77;;;1.77;;
8285;SDS011;4181;43.416;24.598;2024-03-25T15:55:07;3.20;;;1.37;;
8285;SDS011;4181;43.416;24.598;2024-03-25T15:57:33;1.97;;;1.43;;
8285;SDS011;4181;43.416;24.598;2024-03-25T15:59:58;2.40;;;1.70;;
8285;SDS011;4181;43.416;24.598;2024-03-25T16:02:24;2.30;;;1.57;;
8285;SDS011;4181;43.416;24.598;2024-03-25T16:04:50;2.67;;;1.27;;
8285;SDS011;4181;43.416;24.598;2024-03-25T16:07:16;7.70;;;3.33;;
8285;SDS011;4181;43.416;24.598;2024-03-25T16:09:41;3.20;;;1.90;;
8285;SDS011;4181;43.416;24.598;2024-03-25T16:12:06;2.57;;;2.00;;
8285;SDS011;4181;43.416;24.598;2024-03-25T16:14:32;1.43;;;1.33;;
8285;SDS011;4181;43.416;24.598;2024-03-25T16:16:58;1.53;;;1.37;;
8285;SDS011;4181;43.416;24.598;2024-03-25T16:19:23;2.83;;;2.07;;
8285;SDS011;4181;43.416;24.598;2024-03-25T16:21:49;1.43;;;1.20;;
8285;SDS011;4181;43.416;24.598;2024-03-25T16:24:15;6.13;;;3.07;;
8285;SDS011;4181;43.416;24.598;2024-03-25T16:26:40;6.37;;;2.60;;
8285;SDS011;4181;43.416;24.598;2024-03-25T16:29:06;4.63;;;1.90;;
8285;SDS011;4181;43.416;24.598;2024-03-25T16:31:31;1.40;;;1.30;;
8285;SDS011;4181;43.416;24.598;2024-03-25T16:33:57;1.50;;;1.40;;
8285;SDS011;4181;43.416;24.598;2024-03-25T16:36:23;2.43;;;1.50;;
8285;SDS011;4181;43.416;24.598;2024-03-25T16:38:49;2.20;;;1.40;;
8285;SDS011;4181;43.416;24.598;2024-03-25T16:41:14;1.53;;;1.40;;
8285;SDS011;4181;43.416;24.598;2024-03-25T16:43:39;2.93;;;1.87;;
8285;SDS011;4181;43.416;24.598;2024-03-25T16:46:05;3.43;;;1.57;;
8285;SDS011;4181;43.416;24.598;2024-03-25T16:48:30;2.17;;;1.30;;
8285;SDS011;4181;43.416;24.598;2024-03-25T16:50:56;2.93;;;2.30;;
8285;SDS011;4181;43.416;24.598;2024-03-25T16:53:22;5.60;;;2.17;;
8285;SDS011;4181;43.416;24.598;2024-03-25T16:55:50;1.97;;;1.63;;
8285;SDS011;4181;43.416;24.598;2024-03-25T16:58:17;4.60;;;2.73;;
8285;SDS011;4181;43.416;24.598;2024-03-25T17:00:43;8.33;;;2.87;;
8285;SDS011;4181;43.416;24.598;2024-03-25T17:03:08;4.30;;;2.80;;
8285;SDS011;4181;43.416;24.598;2024-03-25T17:05:33;2.87;;;2.13;;
8285;SDS011;4181;43.416;24.598;2024-03-25T17:07:59;2.27;;;1.70;;
8285;SDS011;4181;43.416;24.598;2024-03-25T17:10:25;1.67;;;1.50;;
8285;SDS011;4181;43.416;24.598;2024-03-25T17:12:51;3.30;;;1.57;;
8285;SDS011;4181;43.416;24.598;2024-03-25T17:15:16;2.90;;;1.97;;
8285;SDS011;4181;43.416;24.598;2024-03-25T17:17:42;6.97;;;2.93;;
8285;SDS011;4181;43.416;24.598;2024-03-25T17:20:07;5.73;;;2.73;;
8285;SDS011;4181;43.416;24.598;2024-03-25T17:22:36;2.63;;;2.00;;
8285;SDS011;4181;43.416;24.598;2024-03-25T17:25:02;4.00;;;1.80;;
8285;SDS011;4181;43.416;24.598;2024-03-25T17:27:28;11.43;;;3.90;;